TOM46V EGCC-LEPA
Flight info
| Callsign | TOM46V |
|---|---|
| Flight time | N/A |
| Altitude | 39000 |
| Route | KUXEM P17 BEPHE DCT OSSEP DCT ELNIF DCT ZESPE DCT KLAKI DCT MANIG DCT KORER UM616 TUPAR DCT CNA DCT SECHE DCT AGN DCT TOU DCT LOMRA DCT ROCAN DCT IBRAP DCT LUKEV N13 LORES |
| Aircraft | B789/H-SADE2FGHIJ1J2J4J5M1P2RWXYZ/LB1D1G1 |
Departure
| Time | N/A |
|---|---|
| Airport | Manchester Airport (EGCC) |
Arrival
| Time | 2026-05-07 18:29 |
|---|---|
| Airport | Palma de Mallorca Airport (LEPA) |
| Time | Latitude | Longitude | Altitude | Speed | Heading |
|---|---|---|---|---|---|
| 2026-05-07 17:55 | 41.71384 | 2.28687 | 38970 ft | 477 kts | 171° |
| 2026-05-07 17:55 | 41.68161 | 2.29805 | 38964 ft | 477 kts | 171° |
| 2026-05-07 17:55 | 41.61763 | 2.32049 | 38962 ft | 474 kts | 171° |
| 2026-05-07 17:56 | 41.55374 | 2.34261 | 38959 ft | 474 kts | 171° |
| 2026-05-07 17:56 | 41.48983 | 2.36483 | 38971 ft | 475 kts | 171° |
| 2026-05-07 17:57 | 41.43663 | 2.38324 | 38973 ft | 475 kts | 171° |
| 2026-05-07 17:57 | 41.36207 | 2.40901 | 38974 ft | 476 kts | 171° |
| 2026-05-07 17:58 | 41.29784 | 2.43116 | 38963 ft | 476 kts | 171° |
| 2026-05-07 17:58 | 41.23361 | 2.45326 | 38963 ft | 477 kts | 171° |
| 2026-05-07 17:59 | 41.16932 | 2.47535 | 38964 ft | 477 kts | 171° |
| 2026-05-07 17:59 | 41.10520 | 2.49735 | 38651 ft | 471 kts | 171° |
| 2026-05-07 18:00 | 41.07349 | 2.50820 | 37843 ft | 469 kts | 171° |
| 2026-05-07 18:00 | 41.04199 | 2.51896 | 37123 ft | 465 kts | 171° |
| 2026-05-07 18:00 | 41.01083 | 2.52960 | 36448 ft | 460 kts | 171° |
| 2026-05-07 18:00 | 40.97999 | 2.54013 | 35781 ft | 455 kts | 171° |
| 2026-05-07 18:01 | 40.94958 | 2.55050 | 35099 ft | 449 kts | 171° |
| 2026-05-07 18:01 | 40.91982 | 2.56063 | 34421 ft | 444 kts | 170° |
| 2026-05-07 18:01 | 40.89010 | 2.57074 | 33705 ft | 438 kts | 170° |
| 2026-05-07 18:01 | 40.86080 | 2.58069 | 32953 ft | 432 kts | 169° |
| 2026-05-07 18:02 | 40.80341 | 2.60018 | 31638 ft | 419 kts | 169° |
| 2026-05-07 18:02 | 40.77530 | 2.60971 | 31020 ft | 413 kts | 168° |
| 2026-05-07 18:02 | 40.74760 | 2.61908 | 30401 ft | 409 kts | 168° |
| 2026-05-07 18:03 | 40.72014 | 2.62837 | 29755 ft | 404 kts | 168° |
| 2026-05-07 18:03 | 40.69306 | 2.63754 | 29098 ft | 399 kts | 168° |
| 2026-05-07 18:03 | 40.66630 | 2.64659 | 28489 ft | 394 kts | 168° |
| 2026-05-07 18:03 | 40.63991 | 2.65549 | 27897 ft | 389 kts | 168° |
| 2026-05-07 18:04 | 40.61376 | 2.66431 | 27319 ft | 386 kts | 168° |
| 2026-05-07 18:04 | 40.58780 | 2.67306 | 26736 ft | 385 kts | 168° |
| 2026-05-07 18:04 | 40.56197 | 2.68178 | 26199 ft | 392 kts | 168° |
| 2026-05-07 18:04 | 40.53546 | 2.69066 | 25647 ft | 392 kts | 168° |
| 2026-05-07 18:05 | 40.50921 | 2.69969 | 25231 ft | 386 kts | 166° |
| 2026-05-07 18:05 | 40.48458 | 2.71371 | 24937 ft | 387 kts | 154° |
| 2026-05-07 18:05 | 40.46095 | 2.73083 | 24956 ft | 391 kts | 154° |
| 2026-05-07 18:05 | 40.43693 | 2.74836 | 24966 ft | 396 kts | 154° |
| 2026-05-07 18:06 | 40.41273 | 2.76598 | 24963 ft | 396 kts | 154° |
| 2026-05-07 18:06 | 40.38870 | 2.78335 | 24871 ft | 390 kts | 154° |
| 2026-05-07 18:06 | 40.36489 | 2.80030 | 24128 ft | 389 kts | 156° |
| 2026-05-07 18:06 | 40.33976 | 2.81109 | 23410 ft | 385 kts | 171° |
| 2026-05-07 18:07 | 40.31302 | 2.81276 | 22611 ft | 383 kts | 182° |
| 2026-05-07 18:07 | 40.28660 | 2.81086 | 22011 ft | 378 kts | 184° |
| 2026-05-07 18:07 | 40.26069 | 2.80922 | 21575 ft | 369 kts | 181° |
| 2026-05-07 18:07 | 40.23524 | 2.81000 | 21152 ft | 363 kts | 178° |
| 2026-05-07 18:08 | 40.20989 | 2.81166 | 20744 ft | 367 kts | 178° |
| 2026-05-07 18:08 | 40.18462 | 2.81238 | 20329 ft | 358 kts | 179° |
| 2026-05-07 18:08 | 40.15995 | 2.81249 | 19929 ft | 352 kts | 179° |
| 2026-05-07 18:08 | 40.13542 | 2.81290 | 19545 ft | 353 kts | 178° |
| 2026-05-07 18:09 | 40.11072 | 2.81365 | 19154 ft | 356 kts | 178° |
| 2026-05-07 18:09 | 40.08603 | 2.81432 | 18777 ft | 352 kts | 178° |
| 2026-05-07 18:09 | 40.06175 | 2.81482 | 18392 ft | 347 kts | 178° |
| 2026-05-07 18:09 | 40.03762 | 2.81533 | 17988 ft | 348 kts | 178° |
| 2026-05-07 18:10 | 40.01328 | 2.81591 | 17575 ft | 351 kts | 177° |
| 2026-05-07 18:10 | 39.98893 | 2.81650 | 17166 ft | 347 kts | 177° |
| 2026-05-07 18:10 | 39.96532 | 2.81702 | 16782 ft | 341 kts | 177° |
| 2026-05-07 18:10 | 39.94158 | 2.81757 | 16416 ft | 341 kts | 177° |
| 2026-05-07 18:11 | 39.91815 | 2.81811 | 16045 ft | 332 kts | 177° |
| 2026-05-07 18:11 | 39.90298 | 2.81845 | 15803 ft | 325 kts | 177° |
| 2026-05-07 18:11 | 39.87418 | 2.81909 | 15328 ft | 300 kts | 177° |
| 2026-05-07 18:11 | 39.85354 | 2.81957 | 15038 ft | 292 kts | 177° |
| 2026-05-07 18:12 | 39.83369 | 2.82003 | 14924 ft | 279 kts | 177° |
| 2026-05-07 18:12 | 39.81450 | 2.82047 | 14932 ft | 273 kts | 177° |
| 2026-05-07 18:12 | 39.79551 | 2.82075 | 14928 ft | 274 kts | 179° |
| 2026-05-07 18:12 | 39.77701 | 2.81394 | 14906 ft | 283 kts | 205° |
| 2026-05-07 18:13 | 39.76178 | 2.79758 | 14893 ft | 291 kts | 230° |
| 2026-05-07 18:13 | 39.75042 | 2.77584 | 14951 ft | 292 kts | 233° |
| 2026-05-07 18:13 | 39.73905 | 2.75423 | 14933 ft | 293 kts | 233° |
| 2026-05-07 18:13 | 39.72771 | 2.73274 | 14684 ft | 287 kts | 233° |
| 2026-05-07 18:14 | 39.71665 | 2.71181 | 14501 ft | 272 kts | 233° |
| 2026-05-07 18:14 | 39.70616 | 2.69190 | 14176 ft | 264 kts | 233° |
| 2026-05-07 18:14 | 39.69581 | 2.67228 | 13754 ft | 262 kts | 233° |
| 2026-05-07 18:14 | 39.68553 | 2.65282 | 13269 ft | 261 kts | 233° |
| 2026-05-07 18:15 | 39.67530 | 2.63341 | 12782 ft | 259 kts | 233° |
| 2026-05-07 18:15 | 39.66511 | 2.61413 | 12293 ft | 258 kts | 233° |
| 2026-05-07 18:15 | 39.65501 | 2.59500 | 11826 ft | 256 kts | 233° |
| 2026-05-07 18:15 | 39.64495 | 2.57597 | 11346 ft | 256 kts | 233° |
| 2026-05-07 18:16 | 39.63488 | 2.55695 | 10873 ft | 255 kts | 233° |
| 2026-05-07 18:16 | 39.62485 | 2.53801 | 10409 ft | 254 kts | 234° |
| 2026-05-07 18:16 | 39.61485 | 2.51912 | 9952 ft | 253 kts | 234° |
| 2026-05-07 18:16 | 39.60490 | 2.50035 | 9486 ft | 252 kts | 235° |
| 2026-05-07 18:17 | 39.59503 | 2.48171 | 8999 ft | 249 kts | 235° |
| 2026-05-07 18:17 | 39.58519 | 2.46318 | 8496 ft | 249 kts | 235° |
| 2026-05-07 18:17 | 39.57554 | 2.44500 | 8053 ft | 248 kts | 235° |
| 2026-05-07 18:17 | 39.56565 | 2.42638 | 7538 ft | 247 kts | 235° |
| 2026-05-07 18:18 | 39.55610 | 2.40841 | 7136 ft | 244 kts | 235° |
| 2026-05-07 18:18 | 39.54649 | 2.39033 | 6683 ft | 243 kts | 234° |
| 2026-05-07 18:18 | 39.53697 | 2.37245 | 6256 ft | 240 kts | 234° |
| 2026-05-07 18:18 | 39.52926 | 2.35346 | 5785 ft | 239 kts | 249° |
| 2026-05-07 18:19 | 39.52566 | 2.33280 | 5551 ft | 232 kts | 264° |
| 2026-05-07 18:19 | 39.52615 | 2.31189 | 5497 ft | 235 kts | 278° |
| 2026-05-07 18:19 | 39.52616 | 2.29078 | 5413 ft | 241 kts | 255° |
| 2026-05-07 18:19 | 39.51693 | 2.27307 | 5165 ft | 239 kts | 219° |
| 2026-05-07 18:20 | 39.50182 | 2.26604 | 4875 ft | 230 kts | 182° |
| 2026-05-07 18:20 | 39.48605 | 2.26722 | 4757 ft | 225 kts | 172° |
| 2026-05-07 18:20 | 39.47567 | 2.26857 | 4692 ft | 226 kts | 172° |
| 2026-05-07 18:20 | 39.45992 | 2.27063 | 4589 ft | 227 kts | 172° |
| 2026-05-07 18:21 | 39.44423 | 2.27294 | 4461 ft | 225 kts | 169° |
| 2026-05-07 18:21 | 39.43085 | 2.28239 | 4171 ft | 220 kts | 130° |
| 2026-05-07 18:21 | 39.42524 | 2.29996 | 3929 ft | 206 kts | 97° |
| 2026-05-07 18:21 | 39.42424 | 2.31771 | 3814 ft | 192 kts | 92° |
| 2026-05-07 18:22 | 39.42347 | 2.33453 | 3667 ft | 185 kts | 91° |
| 2026-05-07 18:22 | 39.42296 | 2.34549 | 3575 ft | 185 kts | 92° |
| 2026-05-07 18:22 | 39.42196 | 2.36773 | 3414 ft | 185 kts | 90° |
| 2026-05-07 18:22 | 39.42083 | 2.38426 | 3277 ft | 185 kts | 95° |
| 2026-05-07 18:23 | 39.41979 | 2.40094 | 3144 ft | 186 kts | 91° |
| 2026-05-07 18:23 | 39.41910 | 2.41700 | 3034 ft | 179 kts | 91° |
| 2026-05-07 18:23 | 39.42042 | 2.43312 | 3007 ft | 180 kts | 79° |
| 2026-05-07 18:23 | 39.42394 | 2.44858 | 2983 ft | 181 kts | 67° |
| 2026-05-07 18:24 | 39.43015 | 2.46263 | 3018 ft | 180 kts | 59° |
| 2026-05-07 18:24 | 39.43674 | 2.47652 | 3010 ft | 178 kts | 60° |
| 2026-05-07 18:24 | 39.44299 | 2.48981 | 3009 ft | 174 kts | 59° |
| 2026-05-07 18:24 | 39.44964 | 2.50379 | 2986 ft | 189 kts | 58° |
| 2026-05-07 18:25 | 39.45625 | 2.51795 | 3012 ft | 186 kts | 61° |
| 2026-05-07 18:25 | 39.46285 | 2.53214 | 3020 ft | 179 kts | 59° |
| 2026-05-07 18:25 | 39.46952 | 2.54627 | 2933 ft | 186 kts | 59° |
| 2026-05-07 18:25 | 39.47634 | 2.56058 | 2699 ft | 189 kts | 62° |
| 2026-05-07 18:26 | 39.48299 | 2.57489 | 2448 ft | 183 kts | 59° |
| 2026-05-07 18:26 | 39.48952 | 2.58873 | 2189 ft | 177 kts | 60° |
| 2026-05-07 18:26 | 39.49573 | 2.60189 | 1965 ft | 168 kts | 59° |
| 2026-05-07 18:26 | 39.50168 | 2.61418 | 1740 ft | 156 kts | 59° |
| 2026-05-07 18:27 | 39.50715 | 2.62582 | 1534 ft | 144 kts | 58° |
| 2026-05-07 18:27 | 39.51226 | 2.63669 | 1344 ft | 140 kts | 58° |
| 2026-05-07 18:27 | 39.51732 | 2.64737 | 1163 ft | 138 kts | 58° |
| 2026-05-07 18:27 | 39.52231 | 2.65800 | 962 ft | 140 kts | 58° |
| 2026-05-07 18:28 | 39.52744 | 2.66883 | 788 ft | 142 kts | 58° |
| 2026-05-07 18:28 | 39.53264 | 2.67993 | 602 ft | 144 kts | 58° |
| 2026-05-07 18:28 | 39.53777 | 2.69077 | 366 ft | 141 kts | 57° |
| 2026-05-07 18:28 | 39.54280 | 2.70153 | 215 ft | 134 kts | 57° |
| 2026-05-07 18:29 | 39.54790 | 2.71218 | 86 ft | 143 kts | 59° |
| 2026-05-07 18:29 | 39.55276 | 2.72260 | 44 ft | 116 kts | 59° |
| 2026-05-07 18:29 | 39.55569 | 2.72873 | 44 ft | 43 kts | 59° |
| 2026-05-07 18:29 | 39.55692 | 2.73137 | 44 ft | 23 kts | 65° |
| 2026-05-07 18:30 | 39.55717 | 2.73310 | 44 ft | 17 kts | 88° |
| 2026-05-07 18:30 | 39.55720 | 2.73447 | 44 ft | 13 kts | 88° |
| 2026-05-07 18:30 | 39.55719 | 2.73518 | 44 ft | 4 kts | 106° |
| 2026-05-07 18:30 | 39.55708 | 2.73534 | 42 ft | 1 kts | 144° |
| 2026-05-07 18:31 | 39.55707 | 2.73534 | 42 ft | 0 kts | 146° |
| 2026-05-07 18:33 | 39.55705 | 2.73536 | 42 ft | 2 kts | 149° |
| 2026-05-07 18:33 | 39.55691 | 2.73536 | 44 ft | 3 kts | 191° |
| 2026-05-07 18:33 | 39.55663 | 2.73514 | 44 ft | 7 kts | 211° |
| 2026-05-07 18:33 | 39.55609 | 2.73517 | 44 ft | 10 kts | 163° |
| 2026-05-07 18:34 | 39.55554 | 2.73553 | 44 ft | 8 kts | 150° |